createdAt,value
2023-02-15T00:00:30.544Z,99903.28
2023-02-15T00:02:59.639Z,99895.81
2023-02-15T00:05:30.379Z,99887.00
2023-02-15T00:08:00.785Z,99891.09
2023-02-15T00:10:29.854Z,99899.69
2023-02-15T00:12:58.859Z,99896.94
2023-02-15T00:15:27.950Z,99893.97
2023-02-15T00:17:56.908Z,99898.22
2023-02-15T00:20:25.854Z,99899.06
2023-02-15T00:22:54.864Z,99901.19
2023-02-15T00:25:25.225Z,99888.34
2023-02-15T00:27:54.217Z,99885.94
2023-02-15T00:30:23.260Z,99888.63
2023-02-15T00:32:52.408Z,99889.63
2023-02-15T00:35:21.438Z,99893.31
2023-02-15T00:37:50.471Z,99893.09
2023-02-15T00:40:19.677Z,99887.25
2023-02-15T00:42:50.147Z,99886.53
2023-02-15T00:45:19.156Z,99886.13
2023-02-15T00:47:48.879Z,99879.72
2023-02-15T00:50:18.359Z,99874.31
2023-02-15T00:52:48.787Z,99876.94
2023-02-15T00:55:17.955Z,99874.31
2023-02-15T00:57:47.291Z,99875.00
2023-02-15T01:00:18.617Z,99867.41
2023-02-15T01:02:47.683Z,99872.63
2023-02-15T01:05:17.451Z,99865.41
2023-02-15T01:07:46.464Z,99862.06
2023-02-15T01:10:15.476Z,99862.63
2023-02-15T01:12:44.947Z,99857.53
2023-02-15T01:15:13.939Z,99861.75
2023-02-15T01:17:46.748Z,99851.59
2023-02-15T01:20:16.098Z,99850.78
2023-02-15T01:22:45.152Z,99853.03
2023-02-15T01:25:14.215Z,99847.00
2023-02-15T01:27:43.367Z,99846.25
2023-02-15T01:30:14.476Z,99851.41
2023-02-15T01:32:45.696Z,99853.03
2023-02-15T01:35:14.731Z,99838.28
2023-02-15T01:37:43.745Z,99841.31
2023-02-15T01:40:17.180Z,99846.03
2023-02-15T01:42:47.099Z,99831.78
2023-02-15T01:45:24.681Z,99832.66
2023-02-15T01:48:03.062Z,99826.13
2023-02-15T01:50:36.627Z,99831.19
2023-02-15T01:53:13.755Z,99822.59
2023-02-15T01:55:48.956Z,99825.97
2023-02-15T01:58:18.939Z,99825.22
2023-02-15T02:00:48.468Z,99820.75
2023-02-15T02:03:20.124Z,99816.41
2023-02-15T02:05:49.179Z,99818.13
2023-02-15T02:08:18.189Z,99816.53
2023-02-15T02:10:47.150Z,99820.81
2023-02-15T02:13:17.319Z,99811.31
2023-02-15T02:16:00.088Z,99808.22
2023-02-15T02:18:46.691Z,99802.34
2023-02-15T02:21:58.302Z,99807.59
2023-02-15T02:25:30.589Z,99801.63
2023-02-15T02:28:12.807Z,99810.69
2023-02-15T02:31:05.951Z,99804.53
2023-02-15T02:34:03.614Z,99808.56
2023-02-15T02:36:42.456Z,99804.97
2023-02-15T02:39:26.052Z,99798.44
2023-02-15T02:42:03.978Z,99792.72
2023-02-15T02:44:44.969Z,99789.22
2023-02-15T02:47:20.832Z,99790.09
2023-02-15T02:49:54.979Z,99786.69
2023-02-15T02:52:41.165Z,99779.38
2023-02-15T02:55:17.093Z,99786.84
2023-02-15T02:57:56.134Z,99792.56
2023-02-15T03:00:31.273Z,99787.47
2023-02-15T03:03:06.759Z,99779.91
2023-02-15T03:05:43.216Z,99783.38
2023-02-15T03:08:13.749Z,99781.47
2023-02-15T03:10:44.564Z,99781.81
2023-02-15T03:13:13.661Z,99781.81
2023-02-15T03:16:13.594Z,99778.84
2023-02-15T03:18:53.735Z,99780.16
2023-02-15T03:21:35.260Z,99785.19
2023-02-15T03:24:12.903Z,99786.19
2023-02-15T03:26:45.377Z,99785.53
2023-02-15T03:29:17.546Z,99781.00
2023-02-15T03:31:52.109Z,99781.16
2023-02-15T03:34:21.738Z,99777.72
2023-02-15T03:37:00.118Z,99778.38
2023-02-15T03:39:34.573Z,99777.53
2023-02-15T03:42:13.955Z,99783.06
2023-02-15T03:44:53.578Z,99770.22
2023-02-15T03:47:29.482Z,99775.63
2023-02-15T03:50:04.416Z,99779.47
2023-02-15T03:52:36.389Z,99779.91
2023-02-15T03:55:05.959Z,99779.38
2023-02-15T03:57:56.581Z,99781.63
2023-02-15T04:00:44.977Z,99775.19
2023-02-15T04:03:28.265Z,99774.56
2023-02-15T04:05:57.316Z,99773.19
2023-02-15T04:08:47.643Z,99774.97
2023-02-15T04:11:15.649Z,99765.59
2023-02-15T04:13:44.860Z,99777.47
2023-02-15T04:16:12.989Z,99771.91
2023-02-15T04:19:02.538Z,99776.81
2023-02-15T04:21:50.106Z,99773.91
2023-02-15T04:24:38.489Z,99776.81
2023-02-15T04:27:07.862Z,99780.91
2023-02-15T04:29:36.820Z,99782.38
2023-02-15T04:32:06.424Z,99775.97
2023-02-15T04:34:35.424Z,99783.25
2023-02-15T04:37:04.452Z,99786.09
2023-02-15T04:39:34.721Z,99779.09
2023-02-15T04:42:04.005Z,99776.81
2023-02-15T04:44:33.031Z,99770.47
2023-02-15T04:47:02.034Z,99779.47
2023-02-15T04:49:31.031Z,99776.31
2023-02-15T04:52:00.149Z,99772.56
2023-02-15T04:54:29.345Z,99784.63
2023-02-15T04:56:59.667Z,99779.53
2023-02-15T04:59:28.783Z,99772.56
2023-02-15T05:01:57.731Z,99775.38
2023-02-15T05:04:26.880Z,99770.97
2023-02-15T05:06:56.061Z,99765.44
2023-02-15T05:09:25.204Z,99763.97
2023-02-15T05:11:54.426Z,99766.44
2023-02-15T05:14:25.019Z,99762.84
2023-02-15T05:16:54.947Z,99758.63
2023-02-15T05:19:25.605Z,99761.53
2023-02-15T05:21:54.599Z,99761.84
2023-02-15T05:24:41.228Z,99759.56
2023-02-15T05:27:29.930Z,99763.81
2023-02-15T05:30:00.530Z,99753.06
2023-02-15T05:32:29.645Z,99758.25
2023-02-15T05:34:58.747Z,99759.06
2023-02-15T05:37:28.827Z,99757.97
2023-02-15T05:39:57.834Z,99757.97
2023-02-15T05:42:26.854Z,99764.03
2023-02-15T05:44:55.830Z,99755.06
2023-02-15T05:47:26.243Z,99753.44
2023-02-15T05:49:55.244Z,99756.69
2023-02-15T05:52:24.164Z,99757.69
2023-02-15T05:54:53.279Z,99759.63
2023-02-15T05:57:22.425Z,99761.25
2023-02-15T05:59:51.599Z,99766.97
2023-02-15T06:02:20.842Z,99757.34
2023-02-15T06:04:51.456Z,99765.50
2023-02-15T06:07:20.696Z,99764.19
2023-02-15T06:09:49.851Z,99771.88
2023-02-15T06:12:19.204Z,99771.75
2023-02-15T06:14:48.744Z,99770.28
2023-02-15T06:17:18.372Z,99776.81
2023-02-15T06:19:48.005Z,99774.69
2023-02-15T06:22:18.480Z,99776.81
2023-02-15T06:24:47.593Z,99780.56
2023-02-15T06:27:16.951Z,99783.84
2023-02-15T06:29:46.077Z,99788.09
2023-02-15T06:32:15.155Z,99791.53
2023-02-15T06:34:44.282Z,99789.41
2023-02-15T06:37:13.359Z,99784.69
2023-02-15T06:39:44.091Z,99788.63
2023-02-15T06:42:13.685Z,99782.09
2023-02-15T06:44:42.787Z,99793.66
2023-02-15T06:47:12.487Z,99782.41
2023-02-15T06:49:41.755Z,99789.09
2023-02-15T06:52:12.740Z,99784.19
2023-02-15T06:54:44.460Z,99792.69
2023-02-15T06:57:13.815Z,99798.56
2023-02-15T06:59:43.007Z,99802.16
2023-02-15T07:02:13.344Z,99800.00
2023-02-15T07:04:43.695Z,99799.19
2023-02-15T07:07:14.353Z,99806.38
2023-02-15T07:09:44.929Z,99801.97
2023-02-15T07:12:31.470Z,99797.03
2023-02-15T07:15:00.772Z,99798.81
2023-02-15T07:17:38.085Z,99791.91
2023-02-15T07:20:09.929Z,99793.03
2023-02-15T07:22:38.967Z,99790.09
2023-02-15T07:25:11.950Z,99792.88
2023-02-15T07:27:41.510Z,99789.09
2023-02-15T07:30:14.551Z,99794.16
2023-02-15T07:32:58.056Z,99794.44
2023-02-15T07:35:27.443Z,99790.22
2023-02-15T07:37:56.961Z,99780.78
2023-02-15T07:40:27.348Z,99786.66
2023-02-15T07:43:00.207Z,99787.94
2023-02-15T07:45:29.388Z,99783.72
2023-02-15T07:47:58.428Z,99790.75
2023-02-15T07:50:27.323Z,99783.88
2023-02-15T07:52:56.447Z,99781.34
2023-02-15T07:55:27.009Z,99783.13
2023-02-15T07:57:56.139Z,99778.22
2023-02-15T08:00:26.775Z,99781.84
2023-02-15T08:03:16.188Z,99782.03
2023-02-15T08:05:46.912Z,99786.59
2023-02-15T08:08:30.853Z,99784.34
2023-02-15T08:11:21.243Z,99771.47
2023-02-15T08:13:55.741Z,99780.19
2023-02-15T08:16:27.089Z,99784.50
2023-02-15T08:18:56.979Z,99786.47
2023-02-15T08:21:28.999Z,99773.97
2023-02-15T08:23:59.056Z,99779.34
2023-02-15T08:26:31.943Z,99769.84
2023-02-15T08:29:02.272Z,99771.47
2023-02-15T08:31:31.835Z,99773.56
2023-02-15T08:34:01.083Z,99772.41
2023-02-15T08:36:32.663Z,99767.13
2023-02-15T08:39:05.088Z,99771.50
2023-02-15T08:41:37.447Z,99776.53
2023-02-15T08:44:09.248Z,99778.44
2023-02-15T08:46:41.381Z,99785.03
2023-02-15T08:49:11.578Z,99780.38
2023-02-15T08:51:40.769Z,99774.66
2023-02-15T08:54:12.761Z,99780.97
2023-02-15T08:56:45.478Z,99774.09
2023-02-15T08:59:17.756Z,99785.94
2023-02-15T09:01:49.838Z,99786.88
2023-02-15T09:04:19.659Z,99779.94
2023-02-15T09:06:50.805Z,99780.47
2023-02-15T09:09:21.822Z,99786.66
2023-02-15T09:11:58.815Z,99784.84
2023-02-15T09:14:29.586Z,99781.88
2023-02-15T09:16:58.795Z,99789.06
2023-02-15T09:19:27.989Z,99785.38
2023-02-15T09:21:57.031Z,99786.53
2023-02-15T09:24:26.139Z,99791.50
2023-02-15T09:26:56.560Z,99787.72
2023-02-15T09:29:25.763Z,99785.00
2023-02-15T09:31:55.063Z,99785.63
2023-02-15T09:34:25.021Z,99779.00
2023-02-15T09:36:54.485Z,99777.13
2023-02-15T09:39:25.813Z,99777.13
2023-02-15T09:42:42.392Z,99782.75
2023-02-15T09:45:33.005Z,99770.25
2023-02-15T09:48:32.346Z,99776.34
2023-02-15T09:51:21.634Z,99765.16
2023-02-15T09:54:24.934Z,99774.94
2023-02-15T09:57:00.390Z,99772.97
2023-02-15T09:59:44.362Z,99775.19
2023-02-15T10:02:36.945Z,99775.75
2023-02-15T10:05:22.844Z,99774.16
2023-02-15T10:08:34.091Z,99765.16
2023-02-15T10:11:32.234Z,99762.13
2023-02-15T10:14:21.156Z,99760.31
2023-02-15T10:17:04.943Z,99757.56
2023-02-15T10:19:45.757Z,99754.81
2023-02-15T10:22:28.714Z,99752.28
2023-02-15T10:25:31.220Z,99750.19
2023-02-15T10:28:07.792Z,99743.25
2023-02-15T10:30:48.240Z,99750.44
2023-02-15T10:33:41.724Z,99745.09
2023-02-15T10:36:40.348Z,99738.44
2023-02-15T10:39:19.776Z,99734.16
2023-02-15T10:41:58.721Z,99739.25
2023-02-15T10:44:49.479Z,99737.84
2023-02-15T10:47:47.278Z,99726.69
2023-02-15T10:50:37.300Z,99721.31
2023-02-15T10:53:45.431Z,99718.13
2023-02-15T10:56:22.824Z,99714.50
2023-02-15T10:59:28.234Z,99708.13
2023-02-15T11:02:03.899Z,99707.13
2023-02-15T11:04:56.765Z,99707.41
2023-02-15T11:07:32.502Z,99709.84
2023-02-15T11:10:14.025Z,99692.31
2023-02-15T11:12:46.633Z,99697.44
2023-02-15T11:15:24.780Z,99696.59
2023-02-15T11:18:00.976Z,99691.50
2023-02-15T11:20:37.366Z,99682.72
2023-02-15T11:23:17.534Z,99686.47
2023-02-15T11:25:54.975Z,99683.63
2023-02-15T11:28:31.115Z,99675.81
2023-02-15T11:31:13.731Z,99682.69
2023-02-15T11:33:48.188Z,99682.91
2023-02-15T11:36:23.689Z,99673.75
2023-02-15T11:39:01.351Z,99668.41
2023-02-15T11:41:35.743Z,99671.78
2023-02-15T11:44:16.299Z,99670.22
2023-02-15T11:46:45.586Z,99670.69
2023-02-15T11:49:32.597Z,99674.88
2023-02-15T11:52:05.610Z,99671.16
2023-02-15T11:54:38.397Z,99661.03
2023-02-15T11:57:19.107Z,99650.38
2023-02-15T11:59:54.688Z,99651.69
2023-02-15T12:02:27.637Z,99650.78
2023-02-15T12:05:00.905Z,99645.00
2023-02-15T12:07:37.410Z,99644.78
2023-02-15T12:10:22.711Z,99639.38
2023-02-15T12:13:12.179Z,99642.88
2023-02-15T12:15:44.807Z,99646.41
2023-02-15T12:18:35.950Z,99637.06
2023-02-15T12:21:09.931Z,99626.16
2023-02-15T12:23:48.877Z,99632.97
2023-02-15T12:26:27.271Z,99633.97
2023-02-15T12:29:02.682Z,99633.31
2023-02-15T12:31:41.735Z,99630.81
2023-02-15T12:34:21.449Z,99629.16
2023-02-15T12:36:55.440Z,99622.00
2023-02-15T12:39:28.622Z,99613.59
2023-02-15T12:42:07.125Z,99617.13
2023-02-15T12:44:38.285Z,99616.16
2023-02-15T12:47:19.831Z,99605.69
2023-02-15T12:50:17.876Z,99612.34
2023-02-15T12:52:49.968Z,99609.28
2023-02-15T12:55:24.871Z,99607.63
2023-02-15T12:58:10.888Z,99612.25
2023-02-15T13:00:40.069Z,99602.53
2023-02-15T13:03:19.883Z,99608.25
2023-02-15T13:05:54.191Z,99605.19
2023-02-15T13:08:30.833Z,99597.16
2023-02-15T13:11:02.746Z,99592.88
2023-02-15T13:13:38.062Z,99595.91
2023-02-15T13:16:12.441Z,99594.16
2023-02-15T13:18:45.324Z,99587.38
2023-02-15T13:21:18.340Z,99582.06
2023-02-15T13:23:53.522Z,99587.00
2023-02-15T13:26:27.273Z,99591.13
2023-02-15T13:29:03.408Z,99589.50
2023-02-15T13:31:34.255Z,99582.66
2023-02-15T13:34:12.686Z,99586.66
2023-02-15T13:36:53.574Z,99589.13
2023-02-15T13:39:33.022Z,99582.25
2023-02-15T13:42:15.098Z,99584.66
2023-02-15T13:45:09.678Z,99583.38
2023-02-15T13:47:51.838Z,99580.16
2023-02-15T13:50:39.469Z,99581.09
2023-02-15T13:53:32.183Z,99570.53
2023-02-15T13:56:12.730Z,99570.16
2023-02-15T13:59:07.013Z,99572.72
2023-02-15T14:01:46.661Z,99577.78
2023-02-15T14:04:55.266Z,99570.09
2023-02-15T14:07:51.875Z,99568.44
2023-02-15T14:10:44.041Z,99571.75
2023-02-15T14:13:48.683Z,99564.41
2023-02-15T14:16:33.961Z,99566.06
2023-02-15T14:19:18.620Z,99557.63
2023-02-15T14:21:55.055Z,99555.28
2023-02-15T14:24:39.490Z,99559.66
2023-02-15T14:27:22.739Z,99563.16
2023-02-15T14:29:55.579Z,99564.81
2023-02-15T14:32:33.723Z,99573.00
2023-02-15T14:35:06.312Z,99568.75
2023-02-15T14:37:54.959Z,99583.41
2023-02-15T14:40:56.442Z,99560.41
2023-02-15T14:43:36.179Z,99569.72
2023-02-15T14:46:14.254Z,99568.53
2023-02-15T14:48:48.934Z,99561.53
2023-02-15T14:52:00.049Z,99561.91
2023-02-15T14:55:09.019Z,99556.28
2023-02-15T14:57:38.532Z,99550.81
2023-02-15T15:00:39.045Z,99547.75
2023-02-15T15:03:22.541Z,99554.63
2023-02-15T15:05:55.977Z,99550.72
2023-02-15T15:08:35.633Z,99554.53
2023-02-15T15:11:44.622Z,99551.41
2023-02-15T15:14:40.579Z,99544.09
2023-02-15T15:17:14.658Z,99532.25
2023-02-15T15:20:15.163Z,99520.75
2023-02-15T15:22:45.759Z,99520.22
2023-02-15T15:25:45.819Z,99514.03
2023-02-15T15:28:56.725Z,99520.47
2023-02-15T15:31:49.883Z,99508.38
2023-02-15T15:34:38.120Z,99500.13
2023-02-15T15:37:56.979Z,99496.53
2023-02-15T15:40:57.374Z,99493.34
2023-02-15T15:44:23.618Z,99489.38
2023-02-15T15:47:15.343Z,99494.31
2023-02-15T15:49:44.514Z,99484.72
2023-02-15T15:52:18.162Z,99485.16
2023-02-15T15:54:50.632Z,99493.72
2023-02-15T15:57:30.435Z,99491.13
2023-02-15T16:00:01.180Z,99493.78
2023-02-15T16:02:30.777Z,99490.53
2023-02-15T16:05:10.430Z,99485.59
2023-02-15T16:07:43.592Z,99482.16
2023-02-15T16:10:25.235Z,99482.19
2023-02-15T16:12:56.375Z,99482.47
2023-02-15T16:15:32.049Z,99471.09
2023-02-15T16:18:02.756Z,99477.16
2023-02-15T16:20:35.994Z,99479.28
2023-02-15T16:23:41.790Z,99477.31
2023-02-15T16:26:16.703Z,99478.81
2023-02-15T16:28:52.661Z,99476.91
2023-02-15T16:31:23.484Z,99484.34
2023-02-15T16:33:56.708Z,99475.38
2023-02-15T16:36:28.163Z,99471.84
2023-02-15T16:39:19.883Z,99481.75
2023-02-15T16:41:50.731Z,99478.38
2023-02-15T16:44:22.776Z,99473.00
2023-02-15T16:46:55.517Z,99476.03
2023-02-15T16:49:27.796Z,99476.75
2023-02-15T16:52:00.404Z,99471.53
2023-02-15T16:54:33.095Z,99467.13
2023-02-15T16:57:02.600Z,99471.09
2023-02-15T16:59:38.125Z,99475.16
2023-02-15T17:02:23.622Z,99479.84
2023-02-15T17:05:20.918Z,99487.56
2023-02-15T17:08:06.631Z,99489.03
2023-02-15T17:10:38.419Z,99493.91
2023-02-15T17:13:13.757Z,99490.34
2023-02-15T17:15:46.715Z,99489.53
2023-02-15T17:18:21.118Z,99489.03
2023-02-15T17:20:53.145Z,99488.06
2023-02-15T17:23:28.723Z,99490.19
2023-02-15T17:25:58.425Z,99494.72
2023-02-15T17:28:32.588Z,99495.06
2023-02-15T17:31:09.442Z,99492.09
2023-02-15T17:33:40.390Z,99498.97
2023-02-15T17:36:14.796Z,99489.03
2023-02-15T17:39:07.512Z,99489.66
2023-02-15T17:41:39.271Z,99493.03
2023-02-15T17:44:12.195Z,99493.66
2023-02-15T17:46:44.125Z,99495.44
2023-02-15T17:49:20.771Z,99498.88
2023-02-15T17:51:49.810Z,99502.41
2023-02-15T17:54:44.814Z,99495.78
2023-02-15T17:57:16.086Z,99492.16
2023-02-15T18:00:02.766Z,99492.94
2023-02-15T18:03:00.478Z,99490.81
2023-02-15T18:05:47.213Z,99492.88
2023-02-15T18:08:36.897Z,99488.22
2023-02-15T18:11:23.953Z,99490.00
2023-02-15T18:13:53.034Z,99486.06
2023-02-15T18:16:27.841Z,99486.78
2023-02-15T18:18:58.770Z,99496.66
2023-02-15T18:21:28.139Z,99498.38
2023-02-15T18:23:57.187Z,99488.41
2023-02-15T18:26:28.326Z,99494.38
2023-02-15T18:28:58.431Z,99491.25
2023-02-15T18:31:27.836Z,99493.28
2023-02-15T18:34:01.127Z,99487.75
2023-02-15T18:36:34.450Z,99490.63
2023-02-15T18:39:30.878Z,99489.84
2023-02-15T18:42:00.205Z,99495.38
2023-02-15T18:44:29.528Z,99491.88
2023-02-15T18:46:58.757Z,99494.88
2023-02-15T18:49:29.376Z,99493.56
2023-02-15T18:51:58.549Z,99496.84
2023-02-15T18:54:27.856Z,99489.72
2023-02-15T18:56:59.253Z,99489.00
2023-02-15T18:59:30.574Z,99494.88
2023-02-15T19:02:00.598Z,99490.00
2023-02-15T19:04:34.257Z,99496.16
2023-02-15T19:07:03.692Z,99496.88
2023-02-15T19:09:32.985Z,99499.97
2023-02-15T19:12:02.338Z,99496.38
2023-02-15T19:14:34.434Z,99499.16
2023-02-15T19:17:04.905Z,99489.03
2023-02-15T19:19:37.213Z,99499.25
2023-02-15T19:22:06.851Z,99492.88
2023-02-15T19:24:43.233Z,99492.38
2023-02-15T19:27:23.572Z,99485.94
2023-02-15T19:29:53.974Z,99482.97
2023-02-15T19:32:23.440Z,99482.97
2023-02-15T19:34:56.134Z,99482.34
2023-02-15T19:37:35.561Z,99483.56
2023-02-15T19:40:08.175Z,99482.97
2023-02-15T19:42:37.648Z,99478.63
2023-02-15T19:45:17.737Z,99474.22
2023-02-15T19:47:48.256Z,99471.78
2023-02-15T19:50:22.002Z,99477.75
2023-02-15T19:52:51.418Z,99477.56
2023-02-15T19:55:27.163Z,99479.81
2023-02-15T19:57:58.372Z,99468.56
2023-02-15T20:00:30.169Z,99481.13
2023-02-15T20:03:00.217Z,99474.09
2023-02-15T20:05:34.285Z,99472.34
2023-02-15T20:08:04.089Z,99470.63
2023-02-15T20:10:33.619Z,99468.16
2023-02-15T20:13:03.546Z,99474.31
2023-02-15T20:15:35.902Z,99467.19
2023-02-15T20:18:06.933Z,99470.84
2023-02-15T20:20:43.669Z,99467.16
2023-02-15T20:23:21.369Z,99460.66
2023-02-15T20:25:51.666Z,99472.06
2023-02-15T20:28:24.237Z,99472.47
2023-02-15T20:30:54.443Z,99470.94
2023-02-15T20:33:24.882Z,99465.16
2023-02-15T20:35:55.934Z,99462.09
2023-02-15T20:38:28.738Z,99462.50
2023-02-15T20:41:17.990Z,99459.44
2023-02-15T20:43:47.422Z,99464.31
2023-02-15T20:46:16.692Z,99457.38
2023-02-15T20:48:46.317Z,99460.34
2023-02-15T20:51:20.349Z,99451.28
2023-02-15T20:53:50.732Z,99451.28
2023-02-15T20:56:22.243Z,99444.94
2023-02-15T20:58:53.289Z,99438.53
2023-02-15T21:01:22.942Z,99437.78
2023-02-15T21:03:52.239Z,99442.28
2023-02-15T21:06:23.723Z,99445.16
2023-02-15T21:08:54.829Z,99443.19
2023-02-15T21:11:24.525Z,99434.72
2023-02-15T21:13:53.670Z,99435.84
2023-02-15T21:16:23.071Z,99434.84
2023-02-15T21:18:52.175Z,99431.16
2023-02-15T21:21:25.038Z,99428.81
2023-02-15T21:23:56.018Z,99428.63
2023-02-15T21:26:28.295Z,99430.63
2023-02-15T21:28:58.966Z,99425.53
2023-02-15T21:31:29.488Z,99435.53
2023-02-15T21:33:58.633Z,99427.25
2023-02-15T21:36:29.533Z,99427.19
2023-02-15T21:38:58.603Z,99429.03
2023-02-15T21:41:46.873Z,99425.78
2023-02-15T21:44:36.658Z,99418.41
2023-02-15T21:47:24.319Z,99413.31
2023-02-15T21:49:53.394Z,99407.09
2023-02-15T21:52:24.174Z,99417.88
2023-02-15T21:54:53.296Z,99418.78
2023-02-15T21:57:22.610Z,99421.25
2023-02-15T21:59:51.698Z,99418.91
2023-02-15T22:02:29.778Z,99416.16
2023-02-15T22:05:00.179Z,99417.97
2023-02-15T22:07:30.673Z,99420.63
2023-02-15T22:09:59.926Z,99411.25
2023-02-15T22:12:29.014Z,99410.13
2023-02-15T22:14:58.182Z,99410.66
2023-02-15T22:17:29.326Z,99413.19
2023-02-15T22:19:59.310Z,99404.31
2023-02-15T22:22:30.208Z,99407.38
2023-02-15T22:25:00.693Z,99407.13
2023-02-15T22:27:31.651Z,99403.25
2023-02-15T22:30:00.894Z,99401.53
2023-02-15T22:32:30.080Z,99396.34
2023-02-15T22:34:59.248Z,99400.00
2023-02-15T22:37:28.287Z,99395.31
2023-02-15T22:39:57.381Z,99391.84
2023-02-15T22:42:29.543Z,99402.84
2023-02-15T22:44:59.804Z,99397.53
2023-02-15T22:47:32.211Z,99400.47
2023-02-15T22:50:03.596Z,99413.19
2023-02-15T22:52:33.526Z,99416.78
2023-02-15T22:55:02.701Z,99415.28
2023-02-15T22:57:33.769Z,99423.78
2023-02-15T23:00:03.137Z,99421.53
2023-02-15T23:02:32.306Z,99426.34
2023-02-15T23:05:01.766Z,99418.94
2023-02-15T23:07:31.093Z,99424.66
2023-02-15T23:10:00.134Z,99417.97
2023-02-15T23:12:53.756Z,99422.13
2023-02-15T23:15:22.832Z,99405.91
2023-02-15T23:17:51.916Z,99412.63
2023-02-15T23:20:21.133Z,99414.72
2023-02-15T23:22:50.206Z,99408.81
2023-02-15T23:25:24.416Z,99409.03
2023-02-15T23:27:57.887Z,99411.88
2023-02-15T23:30:27.421Z,99402.97
2023-02-15T23:32:58.715Z,99401.63
2023-02-15T23:35:27.942Z,99407.72
2023-02-15T23:37:57.067Z,99406.91
2023-02-15T23:40:43.671Z,99405.28
2023-02-15T23:43:22.693Z,99412.28
2023-02-15T23:45:51.947Z,99407.31
2023-02-15T23:48:36.775Z,99401.56
2023-02-15T23:51:07.537Z,99402.41
2023-02-15T23:53:36.639Z,99402.47
2023-02-15T23:56:06.736Z,99401.94
2023-02-15T23:58:41.408Z,99404.75
